sensor_id;sensor_type;location;lat;lon;timestamp;temperature;humidity
41924;DHT22;27613;48.116;11.656;2024-02-21T00:01:35;3.70;99.90
41924;DHT22;27613;48.116;11.656;2024-02-21T00:04:00;3.80;99.90
41924;DHT22;27613;48.116;11.656;2024-02-21T00:06:26;3.70;99.90
41924;DHT22;27613;48.116;11.656;2024-02-21T00:08:52;3.80;99.90
41924;DHT22;27613;48.116;11.656;2024-02-21T00:11:17;3.80;99.90
41924;DHT22;27613;48.116;11.656;2024-02-21T00:13:43;3.80;99.90
41924;DHT22;27613;48.116;11.656;2024-02-21T00:16:08;3.80;99.90
41924;DHT22;27613;48.116;11.656;2024-02-21T00:18:34;3.80;99.90
41924;DHT22;27613;48.116;11.656;2024-02-21T00:20:59;3.80;99.90
41924;DHT22;27613;48.116;11.656;2024-02-21T00:23:27;3.90;99.90
41924;DHT22;27613;48.116;11.656;2024-02-21T00:25:53;3.90;99.90
41924;DHT22;27613;48.116;11.656;2024-02-21T00:28:19;3.90;99.90
41924;DHT22;27613;48.116;11.656;2024-02-21T00:30:45;3.90;99.90
41924;DHT22;27613;48.116;11.656;2024-02-21T00:33:13;3.90;99.90
41924;DHT22;27613;48.116;11.656;2024-02-21T00:35:38;3.90;99.90
41924;DHT22;27613;48.116;11.656;2024-02-21T00:38:04;3.90;99.90
41924;DHT22;27613;48.116;11.656;2024-02-21T00:40:29;3.90;99.90
41924;DHT22;27613;48.116;11.656;2024-02-21T00:42:55;4.00;99.90
41924;DHT22;27613;48.116;11.656;2024-02-21T00:45:20;3.90;99.90
41924;DHT22;27613;48.116;11.656;2024-02-21T00:47:46;4.00;99.90
41924;DHT22;27613;48.116;11.656;2024-02-21T00:50:11;3.90;99.90
41924;DHT22;27613;48.116;11.656;2024-02-21T00:52:37;4.00;99.90
41924;DHT22;27613;48.116;11.656;2024-02-21T00:55:04;4.10;99.90
41924;DHT22;27613;48.116;11.656;2024-02-21T00:57:29;4.00;99.90
41924;DHT22;27613;48.116;11.656;2024-02-21T00:59:55;4.00;99.90
41924;DHT22;27613;48.116;11.656;2024-02-21T01:02:20;4.10;99.90
41924;DHT22;27613;48.116;11.656;2024-02-21T01:04:46;4.10;99.90
41924;DHT22;27613;48.116;11.656;2024-02-21T01:07:12;4.00;99.90
41924;DHT22;27613;48.116;11.656;2024-02-21T01:09:37;4.10;99.90
41924;DHT22;27613;48.116;11.656;2024-02-21T01:12:03;4.10;99.90
41924;DHT22;27613;48.116;11.656;2024-02-21T01:14:28;4.00;99.90
41924;DHT22;27613;48.116;11.656;2024-02-21T01:16:54;4.00;99.90
41924;DHT22;27613;48.116;11.656;2024-02-21T01:19:19;4.10;99.90
41924;DHT22;27613;48.116;11.656;2024-02-21T01:21:45;4.10;99.90
41924;DHT22;27613;48.116;11.656;2024-02-21T01:24:10;4.10;99.90
41924;DHT22;27613;48.116;11.656;2024-02-21T01:26:36;4.10;99.90
41924;DHT22;27613;48.116;11.656;2024-02-21T01:29:01;4.10;99.90
41924;DHT22;27613;48.116;11.656;2024-02-21T01:31:27;4.10;99.90
41924;DHT22;27613;48.116;11.656;2024-02-21T01:33:52;4.10;99.90
41924;DHT22;27613;48.116;11.656;2024-02-21T01:36:18;4.10;99.90
41924;DHT22;27613;48.116;11.656;2024-02-21T01:38:43;4.10;99.90
41924;DHT22;27613;48.116;11.656;2024-02-21T01:41:09;4.10;99.90
41924;DHT22;27613;48.116;11.656;2024-02-21T01:43:34;4.10;99.90
41924;DHT22;27613;48.116;11.656;2024-02-21T01:46:00;4.10;99.90
41924;DHT22;27613;48.116;11.656;2024-02-21T01:48:27;4.10;99.90
41924;DHT22;27613;48.116;11.656;2024-02-21T01:50:54;4.10;99.90
41924;DHT22;27613;48.116;11.656;2024-02-21T01:53:22;4.10;99.90
41924;DHT22;27613;48.116;11.656;2024-02-21T01:55:49;4.10;99.90
41924;DHT22;27613;48.116;11.656;2024-02-21T01:58:18;4.10;99.90
41924;DHT22;27613;48.116;11.656;2024-02-21T02:00:45;4.10;99.90
41924;DHT22;27613;48.116;11.656;2024-02-21T02:03:12;4.10;99.90
41924;DHT22;27613;48.116;11.656;2024-02-21T02:05:48;4.20;99.90
41924;DHT22;27613;48.116;11.656;2024-02-21T02:08:15;4.10;99.90
41924;DHT22;27613;48.116;11.656;2024-02-21T02:10:41;4.20;99.90
41924;DHT22;27613;48.116;11.656;2024-02-21T02:13:07;4.20;99.90
41924;DHT22;27613;48.116;11.656;2024-02-21T02:18:05;4.20;99.90
41924;DHT22;27613;48.116;11.656;2024-02-21T02:20:30;4.20;99.90
41924;DHT22;27613;48.116;11.656;2024-02-21T02:22:57;4.20;99.90
41924;DHT22;27613;48.116;11.656;2024-02-21T02:25:24;4.20;99.90
41924;DHT22;27613;48.116;11.656;2024-02-21T02:27:50;4.20;99.90
41924;DHT22;27613;48.116;11.656;2024-02-21T02:30:16;4.20;99.90
41924;DHT22;27613;48.116;11.656;2024-02-21T02:32:45;4.10;99.90
41924;DHT22;27613;48.116;11.656;2024-02-21T02:35:11;4.20;99.90
41924;DHT22;27613;48.116;11.656;2024-02-21T02:37:37;4.10;99.90
41924;DHT22;27613;48.116;11.656;2024-02-21T02:40:05;4.20;99.90
41924;DHT22;27613;48.116;11.656;2024-02-21T02:42:31;4.20;99.90
41924;DHT22;27613;48.116;11.656;2024-02-21T02:44:56;4.20;99.90
41924;DHT22;27613;48.116;11.656;2024-02-21T02:47:22;4.20;99.90
41924;DHT22;27613;48.116;11.656;2024-02-21T02:49:48;4.30;99.90
41924;DHT22;27613;48.116;11.656;2024-02-21T02:52:16;4.30;99.90
41924;DHT22;27613;48.116;11.656;2024-02-21T02:54:42;4.30;99.90
41924;DHT22;27613;48.116;11.656;2024-02-21T02:57:07;4.30;99.90
41924;DHT22;27613;48.116;11.656;2024-02-21T02:59:33;4.40;99.90
41924;DHT22;27613;48.116;11.656;2024-02-21T03:01:59;4.40;99.90
41924;DHT22;27613;48.116;11.656;2024-02-21T03:04:24;4.40;99.90
41924;DHT22;27613;48.116;11.656;2024-02-21T03:06:49;4.40;99.90
41924;DHT22;27613;48.116;11.656;2024-02-21T03:09:16;4.40;99.90
41924;DHT22;27613;48.116;11.656;2024-02-21T03:11:42;4.40;99.90
41924;DHT22;27613;48.116;11.656;2024-02-21T03:14:10;4.40;99.90
41924;DHT22;27613;48.116;11.656;2024-02-21T03:16:36;4.40;99.90
41924;DHT22;27613;48.116;11.656;2024-02-21T03:19:01;4.50;99.90
41924;DHT22;27613;48.116;11.656;2024-02-21T03:21:27;4.40;99.90
41924;DHT22;27613;48.116;11.656;2024-02-21T03:23:52;4.40;99.90
41924;DHT22;27613;48.116;11.656;2024-02-21T03:26:18;4.40;99.90
41924;DHT22;27613;48.116;11.656;2024-02-21T03:28:44;4.30;99.90
41924;DHT22;27613;48.116;11.656;2024-02-21T03:31:11;4.30;99.90
41924;DHT22;27613;48.116;11.656;2024-02-21T03:33:42;4.30;99.90
41924;DHT22;27613;48.116;11.656;2024-02-21T03:36:13;4.30;99.90
41924;DHT22;27613;48.116;11.656;2024-02-21T03:38:39;4.30;99.90
41924;DHT22;27613;48.116;11.656;2024-02-21T03:41:05;4.30;99.90
41924;DHT22;27613;48.116;11.656;2024-02-21T03:43:30;4.30;99.90
41924;DHT22;27613;48.116;11.656;2024-02-21T03:45:56;4.30;99.90
41924;DHT22;27613;48.116;11.656;2024-02-21T03:48:22;4.30;99.90
41924;DHT22;27613;48.116;11.656;2024-02-21T03:50:47;4.20;99.90
41924;DHT22;27613;48.116;11.656;2024-02-21T03:53:13;4.20;99.90
41924;DHT22;27613;48.116;11.656;2024-02-21T03:55:38;4.20;99.90
41924;DHT22;27613;48.116;11.656;2024-02-21T03:58:04;4.20;99.90
41924;DHT22;27613;48.116;11.656;2024-02-21T04:00:29;4.30;99.90
41924;DHT22;27613;48.116;11.656;2024-02-21T04:02:55;4.20;99.90
41924;DHT22;27613;48.116;11.656;2024-02-21T04:05:21;4.20;99.90
41924;DHT22;27613;48.116;11.656;2024-02-21T04:07:46;4.20;99.90
41924;DHT22;27613;48.116;11.656;2024-02-21T04:10:12;4.20;99.90
41924;DHT22;27613;48.116;11.656;2024-02-21T04:12:38;4.20;99.90
41924;DHT22;27613;48.116;11.656;2024-02-21T04:15:04;4.30;99.90
41924;DHT22;27613;48.116;11.656;2024-02-21T04:17:30;4.20;99.90
41924;DHT22;27613;48.116;11.656;2024-02-21T04:20:03;4.20;99.90
41924;DHT22;27613;48.116;11.656;2024-02-21T04:22:31;4.10;99.90
41924;DHT22;27613;48.116;11.656;2024-02-21T04:24:59;4.10;99.90
41924;DHT22;27613;48.116;11.656;2024-02-21T04:27:24;4.10;99.90
41924;DHT22;27613;48.116;11.656;2024-02-21T04:29:50;4.10;99.90
41924;DHT22;27613;48.116;11.656;2024-02-21T04:32:15;4.10;99.90
41924;DHT22;27613;48.116;11.656;2024-02-21T04:34:41;4.10;99.90
41924;DHT22;27613;48.116;11.656;2024-02-21T04:37:07;4.10;99.90
41924;DHT22;27613;48.116;11.656;2024-02-21T04:39:32;4.00;99.90
41924;DHT22;27613;48.116;11.656;2024-02-21T04:41:58;4.00;99.90
41924;DHT22;27613;48.116;11.656;2024-02-21T04:44:23;3.90;99.90
41924;DHT22;27613;48.116;11.656;2024-02-21T04:46:49;3.90;99.90
41924;DHT22;27613;48.116;11.656;2024-02-21T04:49:14;3.90;99.90
41924;DHT22;27613;48.116;11.656;2024-02-21T04:51:41;3.90;99.90
41924;DHT22;27613;48.116;11.656;2024-02-21T04:54:06;3.80;99.90
41924;DHT22;27613;48.116;11.656;2024-02-21T04:56:32;3.80;99.90
41924;DHT22;27613;48.116;11.656;2024-02-21T04:58:57;3.70;99.90
41924;DHT22;27613;48.116;11.656;2024-02-21T05:01:23;3.70;99.90
41924;DHT22;27613;48.116;11.656;2024-02-21T05:03:48;3.70;99.90
41924;DHT22;27613;48.116;11.656;2024-02-21T05:06:14;3.70;99.90
41924;DHT22;27613;48.116;11.656;2024-02-21T05:08:43;3.70;99.90
41924;DHT22;27613;48.116;11.656;2024-02-21T05:11:11;3.60;99.90
41924;DHT22;27613;48.116;11.656;2024-02-21T05:13:37;3.60;99.90
41924;DHT22;27613;48.116;11.656;2024-02-21T05:16:02;3.50;99.90
41924;DHT22;27613;48.116;11.656;2024-02-21T05:18:28;3.50;99.90
41924;DHT22;27613;48.116;11.656;2024-02-21T05:20:54;3.50;99.90
41924;DHT22;27613;48.116;11.656;2024-02-21T05:23:19;3.50;99.90
41924;DHT22;27613;48.116;11.656;2024-02-21T05:25:45;3.40;99.90
41924;DHT22;27613;48.116;11.656;2024-02-21T05:28:10;3.40;99.90
41924;DHT22;27613;48.116;11.656;2024-02-21T05:30:36;3.40;99.90
41924;DHT22;27613;48.116;11.656;2024-02-21T05:33:05;3.30;99.90
41924;DHT22;27613;48.116;11.656;2024-02-21T05:35:31;3.40;99.90
41924;DHT22;27613;48.116;11.656;2024-02-21T05:37:57;3.30;99.90
41924;DHT22;27613;48.116;11.656;2024-02-21T05:40:22;3.30;99.90
41924;DHT22;27613;48.116;11.656;2024-02-21T05:42:48;3.30;99.90
41924;DHT22;27613;48.116;11.656;2024-02-21T05:45:14;3.30;99.90
41924;DHT22;27613;48.116;11.656;2024-02-21T05:47:41;3.40;99.90
41924;DHT22;27613;48.116;11.656;2024-02-21T05:50:06;3.30;99.90
41924;DHT22;27613;48.116;11.656;2024-02-21T05:52:32;3.30;99.90
41924;DHT22;27613;48.116;11.656;2024-02-21T05:54:58;3.30;99.90
41924;DHT22;27613;48.116;11.656;2024-02-21T05:57:23;3.40;99.90
41924;DHT22;27613;48.116;11.656;2024-02-21T05:59:49;3.40;99.90
41924;DHT22;27613;48.116;11.656;2024-02-21T06:02:14;3.40;99.90
41924;DHT22;27613;48.116;11.656;2024-02-21T06:04:40;3.30;99.90
41924;DHT22;27613;48.116;11.656;2024-02-21T06:07:05;3.20;99.90
41924;DHT22;27613;48.116;11.656;2024-02-21T06:09:31;3.20;99.90
41924;DHT22;27613;48.116;11.656;2024-02-21T06:11:57;3.30;99.90
41924;DHT22;27613;48.116;11.656;2024-02-21T06:14:22;3.20;99.90
41924;DHT22;27613;48.116;11.656;2024-02-21T06:16:48;3.10;99.90
41924;DHT22;27613;48.116;11.656;2024-02-21T06:19:13;3.20;99.90
41924;DHT22;27613;48.116;11.656;2024-02-21T06:21:39;3.20;99.90
41924;DHT22;27613;48.116;11.656;2024-02-21T06:24:05;3.20;99.90
41924;DHT22;27613;48.116;11.656;2024-02-21T06:26:30;3.20;99.90
41924;DHT22;27613;48.116;11.656;2024-02-21T06:28:56;3.20;99.90
41924;DHT22;27613;48.116;11.656;2024-02-21T06:31:22;3.20;99.90
41924;DHT22;27613;48.116;11.656;2024-02-21T06:33:47;3.20;99.90
41924;DHT22;27613;48.116;11.656;2024-02-21T06:36:13;3.30;99.90
41924;DHT22;27613;48.116;11.656;2024-02-21T06:38:39;3.40;99.90
41924;DHT22;27613;48.116;11.656;2024-02-21T06:41:04;3.40;99.90
41924;DHT22;27613;48.116;11.656;2024-02-21T06:43:30;3.50;99.90
41924;DHT22;27613;48.116;11.656;2024-02-21T06:45:55;3.50;99.90
41924;DHT22;27613;48.116;11.656;2024-02-21T06:48:22;3.60;99.90
41924;DHT22;27613;48.116;11.656;2024-02-21T06:50:47;3.60;99.90
41924;DHT22;27613;48.116;11.656;2024-02-21T06:53:13;3.70;99.90
41924;DHT22;27613;48.116;11.656;2024-02-21T06:55:39;3.70;99.90
41924;DHT22;27613;48.116;11.656;2024-02-21T06:58:04;3.80;99.90
41924;DHT22;27613;48.116;11.656;2024-02-21T07:00:30;3.90;99.90
41924;DHT22;27613;48.116;11.656;2024-02-21T07:02:55;3.90;99.90
41924;DHT22;27613;48.116;11.656;2024-02-21T07:05:21;4.00;99.90
41924;DHT22;27613;48.116;11.656;2024-02-21T07:07:47;4.00;99.90
41924;DHT22;27613;48.116;11.656;2024-02-21T07:10:13;4.00;99.90
41924;DHT22;27613;48.116;11.656;2024-02-21T07:12:38;4.00;99.90
41924;DHT22;27613;48.116;11.656;2024-02-21T07:15:08;4.10;99.90
41924;DHT22;27613;48.116;11.656;2024-02-21T07:17:33;4.10;99.90
41924;DHT22;27613;48.116;11.656;2024-02-21T07:19:59;4.10;99.90
41924;DHT22;27613;48.116;11.656;2024-02-21T07:22:25;4.20;99.90
41924;DHT22;27613;48.116;11.656;2024-02-21T07:24:50;4.20;99.90
41924;DHT22;27613;48.116;11.656;2024-02-21T07:27:16;4.20;99.90
41924;DHT22;27613;48.116;11.656;2024-02-21T07:29:42;4.20;99.90
41924;DHT22;27613;48.116;11.656;2024-02-21T07:32:08;4.30;99.90
41924;DHT22;27613;48.116;11.656;2024-02-21T07:34:33;4.30;99.90
41924;DHT22;27613;48.116;11.656;2024-02-21T07:36:59;4.40;99.90
41924;DHT22;27613;48.116;11.656;2024-02-21T07:39:24;4.40;99.90
41924;DHT22;27613;48.116;11.656;2024-02-21T07:41:50;4.50;99.90
41924;DHT22;27613;48.116;11.656;2024-02-21T07:44:15;4.50;99.70
41924;DHT22;27613;48.116;11.656;2024-02-21T07:46:41;4.50;99.80
41924;DHT22;27613;48.116;11.656;2024-02-21T07:49:06;4.40;99.80
41924;DHT22;27613;48.116;11.656;2024-02-21T07:51:32;4.40;99.80
41924;DHT22;27613;48.116;11.656;2024-02-21T07:53:57;4.40;99.50
41924;DHT22;27613;48.116;11.656;2024-02-21T07:56:23;4.50;99.40
41924;DHT22;27613;48.116;11.656;2024-02-21T07:58:48;4.70;98.70
41924;DHT22;27613;48.116;11.656;2024-02-21T08:01:21;5.20;97.30
41924;DHT22;27613;48.116;11.656;2024-02-21T08:03:47;5.10;97.30
41924;DHT22;27613;48.116;11.656;2024-02-21T08:06:13;4.80;97.70
41924;DHT22;27613;48.116;11.656;2024-02-21T08:08:39;5.00;97.50
41924;DHT22;27613;48.116;11.656;2024-02-21T08:11:05;5.20;96.90
41924;DHT22;27613;48.116;11.656;2024-02-21T08:13:30;6.50;94.30
41924;DHT22;27613;48.116;11.656;2024-02-21T08:15:57;8.10;90.80
41924;DHT22;27613;48.116;11.656;2024-02-21T08:18:22;10.10;82.90
41924;DHT22;27613;48.116;11.656;2024-02-21T08:20:48;9.80;80.00
41924;DHT22;27613;48.116;11.656;2024-02-21T08:23:18;9.50;78.80
41924;DHT22;27613;48.116;11.656;2024-02-21T08:25:44;9.30;78.90
41924;DHT22;27613;48.116;11.656;2024-02-21T08:28:09;10.80;75.60
41924;DHT22;27613;48.116;11.656;2024-02-21T08:30:35;10.80;73.10
41924;DHT22;27613;48.116;11.656;2024-02-21T08:33:00;12.50;71.50
41924;DHT22;27613;48.116;11.656;2024-02-21T08:35:26;12.90;67.60
41924;DHT22;27613;48.116;11.656;2024-02-21T08:37:51;11.30;70.70
41924;DHT22;27613;48.116;11.656;2024-02-21T08:40:18;11.50;71.20
41924;DHT22;27613;48.116;11.656;2024-02-21T08:42:47;13.80;65.30
41924;DHT22;27613;48.116;11.656;2024-02-21T08:45:13;14.10;64.20
41924;DHT22;27613;48.116;11.656;2024-02-21T08:47:42;14.70;61.80
41924;DHT22;27613;48.116;11.656;2024-02-21T08:50:08;13.70;61.10
41924;DHT22;27613;48.116;11.656;2024-02-21T08:52:35;14.10;63.20
41924;DHT22;27613;48.116;11.656;2024-02-21T08:55:01;14.70;61.40
41924;DHT22;27613;48.116;11.656;2024-02-21T08:57:27;14.10;60.20
41924;DHT22;27613;48.116;11.656;2024-02-21T08:59:52;13.10;62.80
41924;DHT22;27613;48.116;11.656;2024-02-21T09:02:18;13.40;64.40
41924;DHT22;27613;48.116;11.656;2024-02-21T09:04:44;14.70;61.00
41924;DHT22;27613;48.116;11.656;2024-02-21T09:07:10;14.50;59.90
41924;DHT22;27613;48.116;11.656;2024-02-21T09:09:36;12.20;65.30
41924;DHT22;27613;48.116;11.656;2024-02-21T09:12:04;12.50;64.40
41924;DHT22;27613;48.116;11.656;2024-02-21T09:14:37;13.80;60.80
41924;DHT22;27613;48.116;11.656;2024-02-21T09:17:04;13.70;60.20
41924;DHT22;27613;48.116;11.656;2024-02-21T09:19:29;15.10;58.70
41924;DHT22;27613;48.116;11.656;2024-02-21T09:21:55;17.10;54.80
41924;DHT22;27613;48.116;11.656;2024-02-21T09:24:20;16.00;55.10
41924;DHT22;27613;48.116;11.656;2024-02-21T09:26:46;17.00;53.80
41924;DHT22;27613;48.116;11.656;2024-02-21T09:29:12;17.00;53.60
41924;DHT22;27613;48.116;11.656;2024-02-21T09:31:38;17.70;53.00
41924;DHT22;27613;48.116;11.656;2024-02-21T09:34:04;18.90;50.50
41924;DHT22;27613;48.116;11.656;2024-02-21T09:36:30;18.50;50.40
41924;DHT22;27613;48.116;11.656;2024-02-21T09:38:55;18.30;48.00
41924;DHT22;27613;48.116;11.656;2024-02-21T09:41:27;17.50;48.70
41924;DHT22;27613;48.116;11.656;2024-02-21T09:43:53;15.20;51.50
41924;DHT22;27613;48.116;11.656;2024-02-21T09:46:38;15.00;53.30
41924;DHT22;27613;48.116;11.656;2024-02-21T09:52:12;17.70;51.00
41924;DHT22;27613;48.116;11.656;2024-02-21T09:54:39;18.10;47.40
41924;DHT22;27613;48.116;11.656;2024-02-21T09:57:10;20.40;45.40
41924;DHT22;27613;48.116;11.656;2024-02-21T09:59:37;18.20;44.40
41924;DHT22;27613;48.116;11.656;2024-02-21T10:02:03;16.00;50.30
41924;DHT22;27613;48.116;11.656;2024-02-21T10:04:30;18.90;47.40
41924;DHT22;27613;48.116;11.656;2024-02-21T10:06:55;18.60;46.50
41924;DHT22;27613;48.116;11.656;2024-02-21T10:11:48;20.10;46.00
41924;DHT22;27613;48.116;11.656;2024-02-21T10:14:15;19.70;44.90
41924;DHT22;27613;48.116;11.656;2024-02-21T10:16:41;19.70;46.70
41924;DHT22;27613;48.116;11.656;2024-02-21T10:19:16;21.40;44.20
41924;DHT22;27613;48.116;11.656;2024-02-21T10:21:42;19.60;44.70
41924;DHT22;27613;48.116;11.656;2024-02-21T10:24:07;18.30;46.20
41924;DHT22;27613;48.116;11.656;2024-02-21T10:26:33;20.10;45.90
41924;DHT22;27613;48.116;11.656;2024-02-21T10:29:01;19.90;45.40
41924;DHT22;27613;48.116;11.656;2024-02-21T10:31:28;19.90;44.90
41924;DHT22;27613;48.116;11.656;2024-02-21T10:34:00;21.00;44.50
41924;DHT22;27613;48.116;11.656;2024-02-21T10:36:29;16.50;48.20
41924;DHT22;27613;48.116;11.656;2024-02-21T10:38:55;17.40;50.30
41924;DHT22;27613;48.116;11.656;2024-02-21T10:41:21;19.10;47.10
41924;DHT22;27613;48.116;11.656;2024-02-21T10:43:51;18.70;47.00
41924;DHT22;27613;48.116;11.656;2024-02-21T10:46:20;19.50;45.30
41924;DHT22;27613;48.116;11.656;2024-02-21T10:48:46;20.50;45.80
41924;DHT22;27613;48.116;11.656;2024-02-21T10:51:17;21.20;43.60
41924;DHT22;27613;48.116;11.656;2024-02-21T10:58:43;19.60;45.50
41924;DHT22;27613;48.116;11.656;2024-02-21T11:01:09;20.50;44.50
41924;DHT22;27613;48.116;11.656;2024-02-21T11:03:35;19.60;45.50
41924;DHT22;27613;48.116;11.656;2024-02-21T11:06:02;21.10;43.60
41924;DHT22;27613;48.116;11.656;2024-02-21T11:08:28;20.00;43.00
41924;DHT22;27613;48.116;11.656;2024-02-21T11:10:58;19.70;45.00
41924;DHT22;27613;48.116;11.656;2024-02-21T11:13:34;19.80;45.20
41924;DHT22;27613;48.116;11.656;2024-02-21T11:18:34;19.20;45.10
41924;DHT22;27613;48.116;11.656;2024-02-21T11:21:00;18.50;45.50
41924;DHT22;27613;48.116;11.656;2024-02-21T11:23:28;18.40;44.20
41924;DHT22;27613;48.116;11.656;2024-02-21T11:26:10;18.70;44.90
41924;DHT22;27613;48.116;11.656;2024-02-21T11:28:36;17.30;44.80
41924;DHT22;27613;48.116;11.656;2024-02-21T11:31:13;16.80;46.60
41924;DHT22;27613;48.116;11.656;2024-02-21T11:33:42;18.80;44.40
41924;DHT22;27613;48.116;11.656;2024-02-21T11:36:10;19.90;42.00
41924;DHT22;27613;48.116;11.656;2024-02-21T11:38:37;19.70;41.80
41924;DHT22;27613;48.116;11.656;2024-02-21T11:41:02;18.60;43.80
41924;DHT22;27613;48.116;11.656;2024-02-21T11:43:28;19.00;43.10
41924;DHT22;27613;48.116;11.656;2024-02-21T11:46:01;17.80;43.80
41924;DHT22;27613;48.116;11.656;2024-02-21T11:48:26;17.80;45.50
41924;DHT22;27613;48.116;11.656;2024-02-21T11:50:56;18.90;44.90
41924;DHT22;27613;48.116;11.656;2024-02-21T11:53:21;19.20;43.90
41924;DHT22;27613;48.116;11.656;2024-02-21T11:55:47;15.20;48.10
41924;DHT22;27613;48.116;11.656;2024-02-21T11:58:13;15.80;48.40
41924;DHT22;27613;48.116;11.656;2024-02-21T12:00:38;16.80;47.50
41924;DHT22;27613;48.116;11.656;2024-02-21T12:03:05;16.50;46.80
41924;DHT22;27613;48.116;11.656;2024-02-21T12:05:31;16.40;46.70
41924;DHT22;27613;48.116;11.656;2024-02-21T12:07:57;16.40;46.00
41924;DHT22;27613;48.116;11.656;2024-02-21T12:10:24;16.30;45.60
41924;DHT22;27613;48.116;11.656;2024-02-21T12:12:51;16.50;45.40
41924;DHT22;27613;48.116;11.656;2024-02-21T12:15:18;17.60;44.10
41924;DHT22;27613;48.116;11.656;2024-02-21T12:17:44;17.10;45.10
41924;DHT22;27613;48.116;11.656;2024-02-21T12:20:10;16.60;45.00
41924;DHT22;27613;48.116;11.656;2024-02-21T12:22:41;17.40;43.80
41924;DHT22;27613;48.116;11.656;2024-02-21T12:25:19;17.90;42.90
41924;DHT22;27613;48.116;11.656;2024-02-21T12:27:48;17.60;45.00
41924;DHT22;27613;48.116;11.656;2024-02-21T12:30:15;15.80;44.60
41924;DHT22;27613;48.116;11.656;2024-02-21T12:32:40;17.00;44.40
41924;DHT22;27613;48.116;11.656;2024-02-21T12:35:07;17.50;44.20
41924;DHT22;27613;48.116;11.656;2024-02-21T12:37:33;17.70;44.40
41924;DHT22;27613;48.116;11.656;2024-02-21T12:39:59;17.90;43.40
41924;DHT22;27613;48.116;11.656;2024-02-21T12:42:25;17.70;43.30
41924;DHT22;27613;48.116;11.656;2024-02-21T12:44:54;19.00;42.00
41924;DHT22;27613;48.116;11.656;2024-02-21T12:47:19;18.00;41.70
41924;DHT22;27613;48.116;11.656;2024-02-21T12:49:49;18.30;43.40
41924;DHT22;27613;48.116;11.656;2024-02-21T12:52:15;16.60;42.90
41924;DHT22;27613;48.116;11.656;2024-02-21T12:54:40;17.90;43.20
41924;DHT22;27613;48.116;11.656;2024-02-21T12:57:06;17.70;43.00
41924;DHT22;27613;48.116;11.656;2024-02-21T12:59:31;17.60;43.30
41924;DHT22;27613;48.116;11.656;2024-02-21T13:01:57;18.50;42.20
41924;DHT22;27613;48.116;11.656;2024-02-21T13:04:22;19.40;41.00
41924;DHT22;27613;48.116;11.656;2024-02-21T13:06:48;19.80;40.40
41924;DHT22;27613;48.116;11.656;2024-02-21T13:09:14;20.00;40.60
41924;DHT22;27613;48.116;11.656;2024-02-21T13:11:40;19.70;41.10
41924;DHT22;27613;48.116;11.656;2024-02-21T13:14:06;18.80;40.30
41924;DHT22;27613;48.116;11.656;2024-02-21T13:16:32;19.00;41.60
41924;DHT22;27613;48.116;11.656;2024-02-21T13:18:59;17.40;43.00
41924;DHT22;27613;48.116;11.656;2024-02-21T13:21:25;17.30;43.40
41924;DHT22;27613;48.116;11.656;2024-02-21T13:23:51;17.40;42.60
41924;DHT22;27613;48.116;11.656;2024-02-21T13:26:16;17.90;42.50
41924;DHT22;27613;48.116;11.656;2024-02-21T13:28:42;17.40;43.10
41924;DHT22;27613;48.116;11.656;2024-02-21T13:31:10;16.40;44.50
41924;DHT22;27613;48.116;11.656;2024-02-21T13:33:35;15.40;46.20
41924;DHT22;27613;48.116;11.656;2024-02-21T13:36:02;16.50;43.70
41924;DHT22;27613;48.116;11.656;2024-02-21T13:38:28;18.10;42.20
41924;DHT22;27613;48.116;11.656;2024-02-21T13:40:54;18.60;41.30
41924;DHT22;27613;48.116;11.656;2024-02-21T13:43:19;17.60;41.90
41924;DHT22;27613;48.116;11.656;2024-02-21T13:45:59;18.00;42.20
41924;DHT22;27613;48.116;11.656;2024-02-21T13:48:25;18.50;41.30
41924;DHT22;27613;48.116;11.656;2024-02-21T13:50:50;18.30;41.50
41924;DHT22;27613;48.116;11.656;2024-02-21T13:53:16;17.60;43.50
41924;DHT22;27613;48.116;11.656;2024-02-21T13:55:45;17.60;43.30
41924;DHT22;27613;48.116;11.656;2024-02-21T13:58:11;18.30;42.70
41924;DHT22;27613;48.116;11.656;2024-02-21T14:00:37;18.90;41.70
41924;DHT22;27613;48.116;11.656;2024-02-21T14:03:02;19.40;41.60
41924;DHT22;27613;48.116;11.656;2024-02-21T14:05:28;18.10;41.70
41924;DHT22;27613;48.116;11.656;2024-02-21T14:07:54;18.80;41.70
41924;DHT22;27613;48.116;11.656;2024-02-21T14:10:20;19.30;39.80
41924;DHT22;27613;48.116;11.656;2024-02-21T14:12:46;16.70;42.10
41924;DHT22;27613;48.116;11.656;2024-02-21T14:15:13;17.00;42.20
41924;DHT22;27613;48.116;11.656;2024-02-21T14:17:38;18.10;39.70
41924;DHT22;27613;48.116;11.656;2024-02-21T14:20:05;17.80;40.70
41924;DHT22;27613;48.116;11.656;2024-02-21T14:22:30;17.40;41.10
41924;DHT22;27613;48.116;11.656;2024-02-21T14:24:56;17.10;41.30
41924;DHT22;27613;48.116;11.656;2024-02-21T14:27:22;17.10;42.20
41924;DHT22;27613;48.116;11.656;2024-02-21T14:29:47;17.70;42.20
41924;DHT22;27613;48.116;11.656;2024-02-21T14:32:13;17.90;42.90
41924;DHT22;27613;48.116;11.656;2024-02-21T14:34:38;17.90;41.90
41924;DHT22;27613;48.116;11.656;2024-02-21T14:37:04;18.30;42.80
41924;DHT22;27613;48.116;11.656;2024-02-21T14:39:30;16.70;42.90
41924;DHT22;27613;48.116;11.656;2024-02-21T14:41:55;16.20;44.20
41924;DHT22;27613;48.116;11.656;2024-02-21T14:44:21;17.10;43.70
41924;DHT22;27613;48.116;11.656;2024-02-21T14:46:46;17.30;43.50
41924;DHT22;27613;48.116;11.656;2024-02-21T14:49:12;16.80;43.10
41924;DHT22;27613;48.116;11.656;2024-02-21T14:51:37;17.80;43.60
41924;DHT22;27613;48.116;11.656;2024-02-21T14:54:03;17.10;43.00
41924;DHT22;27613;48.116;11.656;2024-02-21T14:56:28;17.10;43.50
41924;DHT22;27613;48.116;11.656;2024-02-21T14:58:54;17.10;43.90
41924;DHT22;27613;48.116;11.656;2024-02-21T15:01:19;17.40;43.20
41924;DHT22;27613;48.116;11.656;2024-02-21T15:03:45;17.20;43.90
41924;DHT22;27613;48.116;11.656;2024-02-21T15:06:10;16.80;44.10
41924;DHT22;27613;48.116;11.656;2024-02-21T15:08:37;16.90;44.70
41924;DHT22;27613;48.116;11.656;2024-02-21T15:11:02;17.60;43.80
41924;DHT22;27613;48.116;11.656;2024-02-21T15:13:28;17.20;44.50
41924;DHT22;27613;48.116;11.656;2024-02-21T15:15:55;17.10;44.10
41924;DHT22;27613;48.116;11.656;2024-02-21T15:18:21;16.80;45.40
41924;DHT22;27613;48.116;11.656;2024-02-21T15:20:46;16.30;45.40
41924;DHT22;27613;48.116;11.656;2024-02-21T15:23:12;15.80;46.30
41924;DHT22;27613;48.116;11.656;2024-02-21T15:25:37;15.90;45.90
41924;DHT22;27613;48.116;11.656;2024-02-21T15:28:03;15.90;47.50
41924;DHT22;27613;48.116;11.656;2024-02-21T15:30:32;16.00;46.50
41924;DHT22;27613;48.116;11.656;2024-02-21T15:32:59;15.10;47.40
41924;DHT22;27613;48.116;11.656;2024-02-21T15:35:28;14.80;48.60